createdAt,value
2019-06-10T00:00:23.561Z,9.27
2019-06-10T00:02:51.820Z,13.27
2019-06-10T00:05:21.592Z,8.97
2019-06-10T00:07:51.608Z,9.33
2019-06-10T00:10:21.448Z,7.30
2019-06-10T00:12:51.759Z,8.37
2019-06-10T00:15:21.422Z,8.73
2019-06-10T00:18:01.258Z,8.83
2019-06-10T00:20:21.593Z,8.13
2019-06-10T00:22:51.540Z,7.03
2019-06-10T00:25:21.025Z,8.37
2019-06-10T00:27:51.203Z,9.57
2019-06-10T00:30:20.800Z,9.80
2019-06-10T00:32:51.410Z,9.57
2019-06-10T00:35:23.285Z,9.70
2019-06-10T00:38:05.565Z,9.43
2019-06-10T00:40:31.738Z,8.17
2019-06-10T00:43:02.151Z,8.10
2019-06-10T00:45:31.553Z,8.70
2019-06-10T00:48:13.540Z,10.70
2019-06-10T00:50:30.852Z,11.00
2019-06-10T00:53:01.337Z,10.80
2019-06-10T00:55:31.411Z,11.17
2019-06-10T00:58:01.468Z,9.10
2019-06-10T01:00:31.623Z,10.93
2019-06-10T01:03:01.073Z,9.97
2019-06-10T01:05:31.287Z,10.77
2019-06-10T01:08:01.377Z,9.37
2019-06-10T01:10:31.618Z,12.07
2019-06-10T01:13:00.802Z,10.13
2019-06-10T01:15:31.151Z,10.53
2019-06-10T01:18:01.387Z,10.20
2019-06-10T01:20:29.443Z,10.53
2019-06-10T01:22:57.674Z,10.80
2019-06-10T01:25:26.015Z,9.43
2019-06-10T01:27:54.389Z,12.63
2019-06-10T01:30:27.088Z,11.70
2019-06-10T01:32:52.836Z,12.10
2019-06-10T01:35:21.210Z,10.87
2019-06-10T01:37:52.511Z,11.77
2019-06-10T01:40:32.397Z,10.73
2019-06-10T01:43:01.075Z,11.20
2019-06-10T01:45:31.116Z,10.60
2019-06-10T01:48:01.324Z,11.30
2019-06-10T01:50:31.065Z,11.83
2019-06-10T01:53:00.575Z,11.23
2019-06-10T01:55:31.023Z,11.80
2019-06-10T01:58:00.726Z,10.90
2019-06-10T02:00:31.161Z,10.60
2019-06-10T02:03:03.404Z,10.37
2019-06-10T02:05:31.160Z,10.53
2019-06-10T02:08:00.612Z,10.33
2019-06-10T02:10:30.977Z,11.93
2019-06-10T02:12:58.786Z,8.77
2019-06-10T02:15:27.098Z,10.70
2019-06-10T02:17:55.431Z,9.07
2019-06-10T02:20:24.028Z,10.47
2019-06-10T02:22:52.290Z,12.40
2019-06-10T02:25:21.677Z,11.77
2019-06-10T02:27:50.823Z,12.70
2019-06-10T02:30:38.532Z,13.33
2019-06-10T02:32:52.349Z,11.67
2019-06-10T02:35:30.634Z,11.20
2019-06-10T02:37:49.494Z,10.07
2019-06-10T02:40:22.635Z,10.03
2019-06-10T02:42:49.420Z,11.90
2019-06-10T02:45:22.637Z,10.47
2019-06-10T02:47:47.695Z,9.97
2019-06-10T02:52:57.195Z,10.20
2019-06-10T02:55:30.734Z,10.63
2019-06-10T02:57:55.547Z,11.33
2019-06-10T03:00:36.963Z,12.40
2019-06-10T03:02:53.760Z,12.87
2019-06-10T03:05:27.000Z,11.80
2019-06-10T03:07:53.279Z,11.23
2019-06-10T03:10:29.551Z,11.77
2019-06-10T03:12:52.780Z,10.53
2019-06-10T03:15:24.539Z,10.10
2019-06-10T03:17:52.120Z,11.43
2019-06-10T03:20:23.077Z,12.80
2019-06-10T03:22:52.531Z,13.03
2019-06-10T03:25:22.879Z,12.17
2019-06-10T03:27:52.392Z,11.20
2019-06-10T03:30:30.755Z,12.83
2019-06-10T03:32:50.138Z,10.50
2019-06-10T03:35:19.267Z,13.83
2019-06-10T03:37:47.735Z,13.33
2019-06-10T03:40:16.470Z,13.87
2019-06-10T03:42:44.987Z,14.00
2019-06-10T03:45:13.427Z,13.83
2019-06-10T03:47:42.750Z,11.93
2019-06-10T03:50:13.250Z,14.20
2019-06-10T03:52:43.176Z,11.03
2019-06-10T03:55:12.215Z,13.70
2019-06-10T03:57:42.256Z,11.13
2019-06-10T04:00:14.062Z,11.97
2019-06-10T04:02:43.065Z,10.40
2019-06-10T04:05:13.309Z,17.37
2019-06-10T04:07:42.724Z,9.83
2019-06-10T04:10:12.568Z,15.50
2019-06-10T04:12:43.265Z,9.80
2019-06-10T04:15:12.312Z,11.40
2019-06-10T04:17:42.842Z,11.23
2019-06-10T04:20:14.993Z,12.97
2019-06-10T04:22:41.418Z,11.13
2019-06-10T04:25:12.002Z,13.90
2019-06-10T04:27:42.261Z,10.77
2019-06-10T04:30:09.653Z,9.40
2019-06-10T04:32:37.950Z,9.97
2019-06-10T04:35:06.378Z,11.23
2019-06-10T04:37:34.626Z,13.83
2019-06-10T04:40:03.464Z,13.23
2019-06-10T04:42:32.961Z,11.23
2019-06-10T04:45:03.102Z,10.83
2019-06-10T04:47:33.323Z,11.73
2019-06-10T04:50:03.180Z,10.50
2019-06-10T04:52:32.911Z,9.60
2019-06-10T04:55:02.518Z,10.97
2019-06-10T04:57:32.686Z,10.57
2019-06-10T05:00:02.782Z,9.57
2019-06-10T05:02:33.033Z,9.50
2019-06-10T05:05:02.977Z,9.87
2019-06-10T05:07:34.166Z,9.50
2019-06-10T05:10:03.063Z,11.50
2019-06-10T05:12:32.599Z,9.00
2019-06-10T05:15:00.964Z,9.23
2019-06-10T05:17:31.756Z,11.40
2019-06-10T05:20:02.545Z,7.90
2019-06-10T05:22:32.659Z,11.10
2019-06-10T05:25:02.297Z,12.43
2019-06-10T05:27:32.518Z,8.97
2019-06-10T05:30:02.096Z,8.37
2019-06-10T05:32:31.163Z,8.83
2019-06-10T05:34:59.718Z,8.33
2019-06-10T05:37:29.265Z,9.83
2019-06-10T05:39:57.881Z,7.50
2019-06-10T05:42:26.589Z,8.27
2019-06-10T05:44:56.063Z,8.53
2019-06-10T05:47:26.660Z,8.37
2019-06-10T05:49:54.399Z,8.83
2019-06-10T05:52:23.368Z,8.90
2019-06-10T05:54:52.611Z,8.37
2019-06-10T05:57:23.915Z,7.80
2019-06-10T05:59:52.250Z,7.73
2019-06-10T06:02:22.296Z,8.40
2019-06-10T06:04:52.937Z,8.43
2019-06-10T06:07:22.233Z,8.10
2019-06-10T06:09:50.590Z,9.63
2019-06-10T06:12:18.901Z,8.53
2019-06-10T06:14:47.217Z,8.10
2019-06-10T06:17:16.792Z,7.90
2019-06-10T06:19:45.450Z,7.83
2019-06-10T06:22:13.690Z,10.00
2019-06-10T06:24:42.747Z,7.60
2019-06-10T06:27:13.103Z,10.20
2019-06-10T06:29:43.156Z,9.90
2019-06-10T06:32:13.065Z,10.73
2019-06-10T06:34:43.026Z,9.23
2019-06-10T06:37:12.755Z,8.00
2019-06-10T06:39:42.894Z,9.17
2019-06-10T06:42:12.707Z,7.90
2019-06-10T06:44:43.424Z,8.47
2019-06-10T06:47:13.062Z,8.60
2019-06-10T06:49:42.546Z,8.77
2019-06-10T06:52:12.784Z,8.63
2019-06-10T06:54:42.451Z,8.87
2019-06-10T06:57:12.921Z,8.87
2019-06-10T06:59:43.052Z,7.80
2019-06-10T07:02:12.321Z,6.73
2019-06-10T07:04:43.175Z,9.20
2019-06-10T07:07:13.191Z,8.93
2019-06-10T07:09:43.329Z,7.90
2019-06-10T07:12:13.057Z,10.37
2019-06-10T07:14:44.997Z,8.53
2019-06-10T07:17:12.745Z,7.70
2019-06-10T07:19:43.721Z,9.37
2019-06-10T07:22:13.671Z,7.90
2019-06-10T07:24:43.095Z,8.23
2019-06-10T07:27:12.974Z,8.03
2019-06-10T07:29:44.987Z,10.83
2019-06-10T07:32:12.390Z,7.70
2019-06-10T07:34:42.249Z,9.17
2019-06-10T07:37:12.925Z,9.10
2019-06-10T07:39:44.010Z,7.67
2019-06-10T07:42:13.627Z,9.17
2019-06-10T07:44:44.026Z,8.43
2019-06-10T07:47:12.786Z,10.50
2019-06-10T07:49:43.947Z,7.80
2019-06-10T07:52:19.357Z,9.03
2019-06-10T07:54:45.406Z,8.50
2019-06-10T07:57:13.989Z,7.50
2019-06-10T07:59:44.334Z,7.40
2019-06-10T08:02:12.491Z,8.97
2019-06-10T08:04:44.134Z,9.13
2019-06-10T08:07:12.509Z,8.37
2019-06-10T08:09:43.524Z,7.83
2019-06-10T08:12:12.587Z,12.10
2019-06-10T08:14:42.680Z,8.37
2019-06-10T08:17:12.807Z,9.33
2019-06-10T08:19:46.255Z,7.30
2019-06-10T08:22:13.029Z,8.10
2019-06-10T08:24:43.714Z,9.93
2019-06-10T08:27:12.091Z,9.03
2019-06-10T08:29:41.627Z,9.37
2019-06-10T08:32:12.951Z,11.53
2019-06-10T08:34:44.601Z,8.90
2019-06-10T08:37:13.558Z,8.30
2019-06-10T08:39:43.137Z,7.03
2019-06-10T08:42:12.439Z,9.10
2019-06-10T08:44:43.525Z,8.30
2019-06-10T08:47:12.399Z,6.63
2019-06-10T08:49:44.205Z,7.60
2019-06-10T08:52:12.814Z,7.57
2019-06-10T08:54:45.577Z,8.70
2019-06-10T08:57:12.720Z,7.93
2019-06-10T08:59:45.624Z,5.93
2019-06-10T09:02:12.323Z,7.20
2019-06-10T09:04:43.669Z,6.13
2019-06-10T09:07:12.573Z,8.80
2019-06-10T09:09:43.792Z,8.43
2019-06-10T09:12:27.974Z,6.87
2019-06-10T09:14:43.122Z,7.40
2019-06-10T09:17:13.251Z,5.80
2019-06-10T09:19:43.671Z,8.20
2019-06-10T09:22:12.509Z,6.63
2019-06-10T09:24:53.135Z,7.73
2019-06-10T09:27:26.757Z,9.57
2019-06-10T09:29:55.406Z,8.03
2019-06-10T09:32:23.517Z,8.45
2019-06-10T09:34:57.025Z,6.60
2019-06-10T09:37:23.333Z,8.97
2019-06-10T09:39:58.966Z,9.23
2019-06-10T09:42:23.907Z,7.50
2019-06-10T09:44:55.361Z,9.23
2019-06-10T09:47:22.710Z,8.07
2019-06-10T09:49:55.462Z,7.53
2019-06-10T09:52:23.911Z,10.37
2019-06-10T09:54:56.550Z,6.43
2019-06-10T09:57:23.828Z,8.47
2019-06-10T09:59:56.150Z,6.17
2019-06-10T10:02:23.611Z,7.10
2019-06-10T10:04:57.767Z,8.00
2019-06-10T10:07:22.634Z,8.83
2019-06-10T10:09:56.592Z,7.23
2019-06-10T10:12:22.792Z,7.87
2019-06-10T10:14:54.237Z,7.47
2019-06-10T10:17:23.183Z,8.97
2019-06-10T10:19:56.265Z,9.33
2019-06-10T10:22:22.909Z,7.67
2019-06-10T10:24:55.156Z,7.53
2019-06-10T10:27:23.392Z,10.23
2019-06-10T10:29:57.006Z,6.80
2019-06-10T10:32:23.167Z,7.87
2019-06-10T10:34:56.158Z,8.43
2019-06-10T10:37:22.931Z,5.87
2019-06-10T10:39:54.566Z,8.23
2019-06-10T10:42:23.670Z,7.57
2019-06-10T10:44:58.400Z,6.83
2019-06-10T10:47:25.184Z,6.43
2019-06-10T10:49:56.567Z,5.57
2019-06-10T10:52:22.420Z,8.37
2019-06-10T10:54:54.006Z,6.80
2019-06-10T10:57:23.187Z,6.10
2019-06-10T10:59:53.981Z,5.87
2019-06-10T11:02:22.765Z,6.70
2019-06-10T11:04:55.183Z,8.50
2019-06-10T11:07:22.333Z,7.73
2019-06-10T11:09:54.639Z,8.83
2019-06-10T11:12:22.964Z,7.83
2019-06-10T11:14:55.305Z,6.83
2019-06-10T11:17:23.293Z,7.03
2019-06-10T11:19:53.739Z,8.40
2019-06-10T11:22:23.183Z,8.27
2019-06-10T11:24:56.490Z,7.23
2019-06-10T11:27:24.887Z,8.47
2019-06-10T11:29:53.956Z,8.60
2019-06-10T11:32:23.173Z,9.03
2019-06-10T11:34:56.422Z,6.83
2019-06-10T11:37:23.090Z,7.87
2019-06-10T11:39:52.308Z,9.87
2019-06-10T11:42:23.335Z,8.07
2019-06-10T11:44:54.383Z,6.33
2019-06-10T11:47:22.833Z,7.90
2019-06-10T11:49:53.548Z,6.73
2019-06-10T11:52:22.915Z,8.17
2019-06-10T11:54:58.301Z,8.77
2019-06-10T11:57:22.820Z,6.87
2019-06-10T11:59:52.840Z,7.83
2019-06-10T12:02:22.435Z,7.77
2019-06-10T12:04:51.122Z,7.90
2019-06-10T12:07:22.223Z,7.27
2019-06-10T12:09:51.565Z,8.90
2019-06-10T12:12:22.053Z,9.03
2019-06-10T12:14:54.622Z,7.03
2019-06-10T12:17:34.747Z,9.53
2019-06-10T12:19:53.836Z,10.60
2019-06-10T12:22:22.564Z,9.20
2019-06-10T12:24:50.353Z,7.13
2019-06-10T12:27:18.934Z,7.70
2019-06-10T12:29:47.262Z,7.33
2019-06-10T12:32:15.658Z,7.40
2019-06-10T12:34:46.151Z,8.83
2019-06-10T12:37:15.954Z,7.87
2019-06-10T12:39:43.799Z,7.67
2019-06-10T12:42:14.338Z,7.03
2019-06-10T12:44:42.928Z,7.33
2019-06-10T12:47:11.599Z,7.57
2019-06-10T12:49:39.798Z,7.30
2019-06-10T12:52:08.073Z,7.93
2019-06-10T12:54:36.399Z,8.23
2019-06-10T12:57:06.676Z,7.50
2019-06-10T12:59:34.723Z,7.10
2019-06-10T13:02:17.773Z,8.87
2019-06-10T13:04:33.132Z,6.50
2019-06-10T13:07:05.195Z,8.13
2019-06-10T13:09:32.574Z,11.07
2019-06-10T13:12:02.085Z,9.80
2019-06-10T13:14:32.578Z,8.73
2019-06-10T13:17:02.539Z,8.37
2019-06-10T13:19:34.142Z,10.33
2019-06-10T13:22:01.295Z,6.93
2019-06-10T13:24:30.195Z,8.20
2019-06-10T13:26:58.790Z,8.07
2019-06-10T13:29:27.062Z,8.13
2019-06-10T13:31:55.981Z,7.53
2019-06-10T13:34:24.505Z,9.97
2019-06-10T13:36:53.851Z,8.90
2019-06-10T13:39:22.383Z,8.87
2019-06-10T13:41:52.712Z,9.30
2019-06-10T13:44:22.812Z,8.40
2019-06-10T13:46:53.188Z,7.70
2019-06-10T13:49:22.780Z,6.77
2019-06-10T13:51:52.894Z,7.97
2019-06-10T13:54:22.583Z,9.50
2019-06-10T13:56:52.377Z,8.87
2019-06-10T13:59:22.927Z,8.53
2019-06-10T14:01:52.594Z,8.30
2019-06-10T14:04:25.275Z,9.27
2019-06-10T14:06:56.851Z,11.97
2019-06-10T14:09:23.148Z,9.27
2019-06-10T14:11:50.526Z,8.23
2019-06-10T14:14:18.763Z,9.60
2019-06-10T14:16:47.018Z,7.73
2019-06-10T14:19:16.351Z,7.17
2019-06-10T14:21:45.003Z,11.20
2019-06-10T14:24:16.019Z,9.80
2019-06-10T14:26:45.589Z,9.47
2019-06-10T14:29:16.314Z,8.07
2019-06-10T14:31:47.926Z,7.27
2019-06-10T14:34:18.000Z,8.73
2019-06-10T14:36:45.751Z,8.10
2019-06-10T14:39:15.907Z,11.83
2019-06-10T14:41:44.248Z,39.33
2019-06-10T14:44:16.108Z,18.20
2019-06-10T14:46:42.550Z,10.50
2019-06-10T14:49:11.526Z,9.73
2019-06-10T14:51:42.929Z,10.03
2019-06-10T14:54:12.114Z,11.60
2019-06-10T14:56:50.739Z,10.13
2019-06-10T14:59:14.348Z,10.80
2019-06-10T15:01:42.673Z,10.40
2019-06-10T15:04:12.592Z,9.07
2019-06-10T15:06:43.227Z,38.37
2019-06-10T15:09:11.488Z,10.33
2019-06-10T15:11:39.928Z,9.43
2019-06-10T15:14:08.192Z,9.63
2019-06-10T15:16:36.518Z,10.20
2019-06-10T15:19:14.542Z,10.13
2019-06-10T15:21:34.696Z,10.00
2019-06-10T15:24:03.145Z,9.63
2019-06-10T15:26:32.645Z,10.77
2019-06-10T15:29:02.725Z,11.03
2019-06-10T15:31:31.433Z,10.77
2019-06-10T15:34:02.906Z,11.60
2019-06-10T15:36:32.703Z,11.80
2019-06-10T15:39:01.970Z,10.90
2019-06-10T15:41:32.282Z,13.13
2019-06-10T15:44:02.522Z,13.07
2019-06-10T15:46:32.381Z,11.87
2019-06-10T15:49:02.326Z,12.33
2019-06-10T15:51:33.157Z,11.87
2019-06-10T15:54:02.629Z,13.70
2019-06-10T15:56:45.674Z,15.60
2019-06-10T15:59:04.584Z,17.00
2019-06-10T16:01:35.572Z,12.67
2019-06-10T16:04:05.875Z,12.47
2019-06-10T16:06:34.592Z,17.37
2019-06-10T16:09:03.219Z,12.70
2019-06-10T16:11:33.104Z,16.33
2019-06-10T16:14:02.864Z,17.30
2019-06-10T16:16:32.491Z,18.20
2019-06-10T16:19:02.307Z,20.40
2019-06-10T16:21:31.383Z,18.20
2019-06-10T16:26:28.475Z,18.63
2019-06-10T16:28:57.457Z,19.10
2019-06-10T16:31:27.544Z,20.10
2019-06-10T16:33:58.353Z,19.43
2019-06-10T16:36:28.115Z,17.47
2019-06-10T16:38:57.516Z,18.90
2019-06-10T16:41:28.041Z,17.67
2019-06-10T16:43:56.663Z,17.93
2019-06-10T16:46:26.801Z,17.13
2019-06-10T16:48:55.422Z,18.97
2019-06-10T16:51:23.782Z,19.30
2019-06-10T16:53:52.952Z,16.30
2019-06-10T16:56:24.402Z,18.70
2019-06-10T16:58:52.310Z,15.50
2019-06-10T17:01:23.555Z,19.37
2019-06-10T17:03:52.548Z,16.57
2019-06-10T17:06:22.399Z,11.70
2019-06-10T17:08:52.219Z,14.43
2019-06-10T17:11:23.220Z,15.03
2019-06-10T17:13:52.565Z,15.20
2019-06-10T17:16:22.867Z,16.13
2019-06-10T17:18:50.465Z,15.23
2019-06-10T17:21:19.424Z,16.47
2019-06-10T17:23:48.291Z,18.27
2019-06-10T17:26:16.781Z,21.60
2019-06-10T17:28:45.373Z,15.77
2019-06-10T17:31:13.934Z,20.13
2019-06-10T17:33:42.740Z,18.27
2019-06-10T17:36:12.595Z,18.10
2019-06-10T17:38:42.958Z,18.27
2019-06-10T17:41:13.256Z,17.43
2019-06-10T17:43:42.915Z,18.47
2019-06-10T17:46:13.147Z,17.47
2019-06-10T17:48:43.155Z,18.13
2019-06-10T17:51:11.458Z,19.97
2019-06-10T17:53:39.777Z,24.80
2019-06-10T17:56:08.061Z,16.70
2019-06-10T17:58:50.064Z,20.30
2019-06-10T18:01:06.348Z,14.40
2019-06-10T18:03:36.030Z,16.17
2019-06-10T18:06:04.650Z,17.07
2019-06-10T18:08:36.327Z,18.00
2019-06-10T18:11:03.365Z,15.87
2019-06-10T18:13:33.083Z,20.47
2019-06-10T18:16:02.760Z,16.37
2019-06-10T18:18:36.574Z,14.30
2019-06-10T18:21:03.437Z,16.33
2019-06-10T18:23:32.941Z,16.10
2019-06-10T18:26:03.267Z,14.23
2019-06-10T18:28:35.971Z,13.17
2019-06-10T18:31:01.570Z,13.67
2019-06-10T18:33:29.905Z,16.73
2019-06-10T18:35:58.217Z,15.90
2019-06-10T18:38:27.332Z,17.63
2019-06-10T18:40:55.819Z,13.53
2019-06-10T18:43:24.790Z,16.60
2019-06-10T18:45:53.546Z,16.60
2019-06-10T18:48:23.194Z,17.00
2019-06-10T18:50:53.243Z,16.67
2019-06-10T18:53:23.369Z,15.67
2019-06-10T18:55:54.550Z,19.17
2019-06-10T18:58:22.406Z,14.70
2019-06-10T19:01:00.834Z,14.70
2019-06-10T19:03:23.338Z,16.07
2019-06-10T19:05:52.988Z,19.73
2019-06-10T19:08:22.319Z,17.20
2019-06-10T19:11:02.481Z,18.83
2019-06-10T19:13:33.663Z,22.60
2019-06-10T19:16:02.423Z,19.40
2019-06-10T19:18:31.913Z,22.07
2019-06-10T19:21:03.578Z,16.23
2019-06-10T19:23:33.429Z,18.17
2019-06-10T19:26:02.821Z,20.30
2019-06-10T19:28:33.401Z,23.60
2019-06-10T19:31:02.417Z,19.20
2019-06-10T19:33:34.982Z,26.13
2019-06-10T19:36:02.251Z,23.57
2019-06-10T19:38:32.437Z,19.17
2019-06-10T19:41:02.669Z,29.27
2019-06-10T19:43:33.318Z,32.33
2019-06-10T19:46:04.309Z,27.43
2019-06-10T19:48:33.687Z,30.47
2019-06-10T19:51:02.908Z,33.00
2019-06-10T19:53:32.992Z,25.47
2019-06-10T19:56:02.534Z,26.40
2019-06-10T19:58:32.374Z,23.43
2019-06-10T20:01:01.017Z,26.63
2019-06-10T20:03:29.354Z,17.90
2019-06-10T20:05:59.645Z,21.90
2019-06-10T20:08:27.902Z,21.87
2019-06-10T20:10:56.234Z,24.33
2019-06-10T20:13:24.575Z,20.80
2019-06-10T20:15:52.988Z,18.23
2019-06-10T20:18:22.747Z,19.23
2019-06-10T20:20:53.760Z,21.07
2019-06-10T20:23:21.586Z,25.47
2019-06-10T20:25:52.533Z,21.00
2019-06-10T20:28:22.222Z,25.30
2019-06-10T20:30:50.227Z,26.23
2019-06-10T20:33:23.457Z,32.63
2019-06-10T20:35:51.885Z,35.77
2019-06-10T20:38:22.212Z,32.43
2019-06-10T20:40:50.239Z,33.63
2019-06-10T20:43:18.690Z,40.10
2019-06-10T20:45:47.987Z,33.77
2019-06-10T20:48:16.444Z,33.60
2019-06-10T20:50:47.365Z,32.53
2019-06-10T20:53:18.502Z,34.87
2019-06-10T20:55:51.265Z,28.93
2019-06-10T20:58:14.755Z,32.50
2019-06-10T21:00:51.029Z,35.33
2019-06-10T21:03:13.049Z,32.07
2019-06-10T21:05:43.678Z,33.43
2019-06-10T21:08:12.332Z,27.73
2019-06-10T21:10:44.688Z,32.07
2019-06-10T21:13:12.362Z,35.20
2019-06-10T21:15:45.657Z,29.60
2019-06-10T21:18:13.034Z,22.00
2019-06-10T21:20:45.900Z,26.73
2019-06-10T21:23:13.769Z,19.77
2019-06-10T21:25:44.042Z,24.17
2019-06-10T21:28:12.983Z,19.27
2019-06-10T21:30:46.389Z,16.47
2019-06-10T21:33:13.023Z,17.30
2019-06-10T21:35:44.068Z,16.67
2019-06-10T21:38:12.715Z,19.60
2019-06-10T21:40:42.508Z,17.57
2019-06-10T21:43:12.984Z,17.40
2019-06-10T21:45:42.920Z,16.37
2019-06-10T21:48:12.362Z,16.30
2019-06-10T21:50:43.815Z,18.20
2019-06-10T21:53:12.915Z,20.90
2019-06-10T21:55:42.403Z,19.47
2019-06-10T21:58:11.728Z,16.47
2019-06-10T22:00:55.688Z,17.73
2019-06-10T22:03:17.731Z,21.93
2019-06-10T22:05:47.452Z,18.57
2019-06-10T22:08:15.987Z,18.20
2019-06-10T22:10:44.430Z,24.03
2019-06-10T22:13:13.946Z,21.50
2019-06-10T22:15:42.694Z,19.53
2019-06-10T22:18:12.639Z,17.90
2019-06-10T22:20:42.911Z,23.97
2019-06-10T22:23:12.879Z,20.13
2019-06-10T22:25:41.526Z,22.20
2019-06-10T22:28:09.931Z,17.93
2019-06-10T22:30:38.239Z,23.47
2019-06-10T22:33:06.652Z,20.10
2019-06-10T22:35:35.083Z,18.33
2019-06-10T22:38:03.414Z,16.73
2019-06-10T22:40:42.608Z,15.00
2019-06-10T22:43:12.784Z,17.70
2019-06-10T22:45:42.372Z,17.30
2019-06-10T22:48:12.124Z,13.93
2019-06-10T22:50:43.514Z,16.53
2019-06-10T22:53:12.607Z,14.83
2019-06-10T22:55:43.069Z,17.40
2019-06-10T22:58:14.284Z,19.70
2019-06-10T23:00:43.758Z,22.10
2019-06-10T23:03:13.040Z,14.47
2019-06-10T23:05:43.390Z,15.40
2019-06-10T23:08:12.761Z,15.07
2019-06-10T23:10:42.868Z,16.13
2019-06-10T23:13:13.338Z,17.77
2019-06-10T23:15:42.929Z,18.63
2019-06-10T23:18:12.707Z,18.07
2019-06-10T23:20:42.753Z,19.60
2019-06-10T23:23:12.730Z,16.57
2019-06-10T23:25:42.938Z,15.40
2019-06-10T23:28:12.978Z,16.57
2019-06-10T23:30:43.007Z,14.73
2019-06-10T23:33:12.495Z,16.43
2019-06-10T23:35:42.965Z,17.30
2019-06-10T23:38:13.163Z,16.67
2019-06-10T23:40:43.057Z,18.80
2019-06-10T23:43:13.218Z,20.40
2019-06-10T23:45:42.190Z,15.23
2019-06-10T23:48:13.190Z,16.77
2019-06-10T23:50:40.737Z,16.77
2019-06-10T23:53:09.074Z,18.40
2019-06-10T23:55:37.303Z,15.73
2019-06-10T23:58:05.640Z,14.97
